Pagrindinis puslapis
METAR-TAF:

METAR-TAF

Oro uostai :

Hohn, Vokietija

platuma: 54-19N, ilguma: 009-32E, Aukštis: 12 m

Dabartinis oras

Ataskaita buvo paskelbta 42 minutes, ne 22:20 UTC
Vėjas 10 kt iš Šiaurės
Temperatūra 6°C
Drėgmė 39%
Slėgis 1022 hPa
Matomumas 10 km arba daugiau
Su prošvaistėmis ne aukštis 7000 ft

METAR: ETNH 282220Z 35010KT 9999 BKN070 06/M07 Q1022 BLU

Laikas: 00:02 (23:02 UTC)

Prognozė

Ataskaita buvo paskelbta 11 valandos ir 50 minutes, ne 11:12 UTC
Prognozė galioja nuo 28 metu 12 UTC su 28 metu 24 UTC
Vėjas 10 kt iš Šiaurės/Šiaurės Vakarų
Matomumas 10 km arba daugiau
Išsisklaidę debesys ne aukštis 25000 ft
Laikinai
nuo 28 metu 21 UTC su 28 metu 24 UTC
Vėjas 15 kt iš Šiaurės/Šiaurės Vakarų su gūsio iki 30 kt
Matomumas 10 km arba daugiau
Mažai debesys ne aukštis 15000 ft

TAF: ETNH 281112Z 2812/2824 33010KT 9999 NSW SCT250 TEMPO 2821/2824 33015G30KT 9999 NSW FEW150 BY ETGL

Orai ataskaitas ir orų prognozės (METAR, TAF).

turimą stotys yra geltonos ir raudonos taškus žemėlapyje.

Perkelti pele per norėdami pamatyti stoties vardą.

Tada spustelėkite, norėdami matyti oro stebėjimo ir prognozės.

Norėdami pakeisti žemėlapį: spustelėkite ant žalios mygtukų su juodo kryžiaus žemyn,; žalią mygtuką su brūkšneliu, jei norite nutolinti; arba žalių rodyklių gretimoms žemėlapius.


METAR-TAF: